Time;durP1;ratioP1;P1;durP2;ratioP2;P2;SDS_P1;SDS_P2;PMS_P1;PMS_P2;Temp;Humidity;BMP_temperature;BMP_pressure;BME280_temperature;BME280_humidity;BME280_pressure;Samples;Min_cycle;Max_cycle;Signal;HPM_P1;HPM_P2
2023/08/07 00:00:26;;;;;;;2.93;1.10;;;;;;;10.74;nan;96288.75;4904439;28;20217;-61
2023/08/07 00:02:54;;;;;;;0.80;0.80;;;;;;;10.71;nan;96271.47;4990188;28;20833;-62
2023/08/07 00:05:22;;;;;;;0.83;0.83;;;;;;;10.75;nan;96274.50;4993456;28;20201;-60
2023/08/07 00:07:49;;;;;;;0.77;0.77;;;;;;;10.74;nan;96278.16;4989860;28;20209;-61
2023/08/07 00:10:18;;;;;;;0.70;0.70;;;;;;;10.75;nan;96274.50;4984783;28;20214;-60
2023/08/07 00:12:46;;;;;;;1.43;1.03;;;;;;;10.80;nan;96272.84;4993114;28;20656;-60
2023/08/07 00:15:14;;;;;;;1.70;1.60;;;;;;;10.79;nan;96273.03;4990292;28;20213;-60
2023/08/07 00:17:42;;;;;;;1.10;1.10;;;;;;;10.76;nan;96278.75;4993137;28;20209;-63
2023/08/07 00:20:10;;;;;;;1.97;0.77;;;;;;;10.75;nan;96277.97;4938020;28;20248;-61
2023/08/07 00:22:38;;;;;;;0.70;0.70;;;;;;;10.67;nan;96273.69;4990195;28;20228;-61
2023/08/07 00:25:06;;;;;;;0.67;0.67;;;;;;;10.33;nan;96230.53;4992310;28;20302;-62
2023/08/07 00:27:35;;;;;;;0.70;0.70;;;;;;;10.66;nan;96272.06;4992158;28;20205;-63
2023/08/07 00:30:03;;;;;;;0.90;0.90;;;;;;;10.69;nan;96271.66;4899554;28;20208;-58
2023/08/07 00:32:31;;;;;;;0.50;0.50;;;;;;;10.70;nan;96273.28;4993427;28;20238;-62
2023/08/07 00:34:59;;;;;;;1.10;1.00;;;;;;;10.69;nan;96270.84;4988809;28;20220;-61
2023/08/07 00:37:27;;;;;;;0.60;0.60;;;;;;;10.68;nan;96274.53;4991423;28;20244;-65
2023/08/07 00:39:54;;;;;;;0.70;0.70;;;;;;;10.71;nan;96277.56;4987207;28;20240;-64
2023/08/07 00:42:22;;;;;;;1.13;0.50;;;;;;;10.66;nan;96271.25;4992548;28;20321;-62
2023/08/07 00:44:51;;;;;;;0.50;0.50;;;;;;;10.51;nan;96267.00;4985176;28;20231;-60
2023/08/07 00:47:19;;;;;;;0.50;0.50;;;;;;;10.54;nan;96279.03;4994312;28;20205;-61
2023/08/07 00:49:47;;;;;;;0.60;0.60;;;;;;;10.55;nan;96275.34;4937269;28;20209;-60
2023/08/07 00:52:15;;;;;;;0.53;0.53;;;;;;;10.38;nan;96278.38;4990524;28;20311;-60
2023/08/07 00:54:46;;;;;;;0.60;0.60;;;;;;;10.40;nan;96273.72;4991847;28;20220;-61
2023/08/07 00:57:15;;;;;;;0.50;0.50;;;;;;;10.36;nan;96276.97;4991329;28;20240;-62
2023/08/07 00:59:42;;;;;;;0.80;0.80;;;;;;;10.32;nan;96279.19;4986971;28;20227;-60
2023/08/07 01:02:13;;;;;;;0.60;0.60;;;;;;;10.34;nan;96279.81;4990151;28;20233;-62
2023/08/07 01:04:41;;;;;;;0.50;0.50;;;;;;;10.32;nan;96281.84;4905920;28;20805;-63
2023/08/07 01:07:09;;;;;;;0.83;0.60;;;;;;;10.41;nan;96283.28;4992343;28;20221;-61
2023/08/07 01:09:36;;;;;;;0.83;0.60;;;;;;;10.45;nan;96282.91;4988617;28;20193;-64
2023/08/07 01:12:10;;;;;;;0.50;0.50;;;;;;;10.50;nan;96283.09;4992460;28;20209;-61
2023/08/07 01:14:42;;;;;;;0.43;0.43;;;;;;;10.35;nan;96270.84;4985117;28;20219;-61
2023/08/07 01:17:14;;;;;;;0.40;0.40;;;;;;;10.35;nan;96270.84;4989410;28;20430;-60
2023/08/07 01:19:42;;;;;;;0.50;0.50;;;;;;;10.36;nan;96276.97;4986273;28;20236;-59
2023/08/07 01:22:12;;;;;;;0.60;0.60;;;;;;;10.38;nan;96265.13;4988608;28;20248;-59
2023/08/07 01:24:41;;;;;;;0.40;0.40;;;;;;;10.34;nan;96273.72;4934647;28;20213;-61
2023/08/07 01:27:20;;;;;;;0.60;0.60;;;;;;;10.25;nan;96271.28;4990694;28;20213;-62
2023/08/07 01:29:53;;;;;;;0.50;0.50;;;;;;;9.81;nan;96211.81;4986794;28;20205;-62
2023/08/07 01:32:27;;;;;;;0.60;0.60;;;;;;;10.17;nan;96268.81;4989558;28;20236;-62
2023/08/07 01:34:55;;;;;;;0.40;0.40;;;;;;;10.15;nan;96278.78;4901118;28;21025;-58
2023/08/07 01:37:24;;;;;;;0.63;0.63;;;;;;;10.17;nan;96282.06;4992304;28;20209;-59
2023/08/07 01:39:52;;;;;;;0.40;0.40;;;;;;;10.16;nan;96280.44;4980575;28;20220;-60
2023/08/07 01:42:20;;;;;;;1.03;0.40;;;;;;;10.12;nan;96274.75;4988833;28;21007;-60
2023/08/07 01:44:48;;;;;;;0.83;0.83;;;;;;;10.20;nan;96273.69;4986704;28;20205;-59
2023/08/07 01:47:15;;;;;;;0.40;0.40;;;;;;;10.17;nan;96275.97;4992667;28;20208;-62
2023/08/07 01:49:43;;;;;;;1.27;0.40;;;;;;;10.15;nan;96278.78;4988481;28;20201;-61
2023/08/07 01:52:12;;;;;;;0.30;0.30;;;;;;;10.15;nan;96289.38;4996223;28;20229;-61
2023/08/07 01:54:41;;;;;;;0.30;0.30;;;;;;;10.17;nan;96271.47;4942232;28;20221;-65
2023/08/07 01:57:09;;;;;;;0.50;0.50;;;;;;;10.11;nan;96281.06;4993162;28;20217;-63
2023/08/07 01:59:36;;;;;;;0.40;0.40;;;;;;;10.09;nan;96277.78;4991442;28;20224;-62
2023/08/07 02:02:04;;;;;;;0.40;0.40;;;;;;;10.13;nan;96281.66;4995042;28;20213;-60
2023/08/07 02:04:32;;;;;;;0.37;0.37;;;;;;;10.08;nan;96289.41;4987704;28;20259;-61
2023/08/07 02:07:00;;;;;;;0.47;0.47;;;;;;;10.07;nan;96274.53;4996734;28;20212;-62
2023/08/07 02:09:28;;;;;;;0.50;0.50;;;;;;;10.09;nan;96290.19;4945148;28;20221;-64
2023/08/07 02:11:57;;;;;;;0.30;0.30;;;;;;;10.07;nan;96285.13;4975890;28;20263;-61
2023/08/07 02:14:25;;;;;;;0.30;0.30;;;;;;;10.06;nan;96293.25;4994060;28;20205;-62
2023/08/07 02:16:53;;;;;;;0.40;0.40;;;;;;;10.06;nan;96287.97;4992078;28;20232;-61
2023/08/07 02:19:21;;;;;;;0.50;0.50;;;;;;;10.07;nan;96294.88;4989501;28;20696;-61
2023/08/07 02:21:49;;;;;;;0.30;0.30;;;;;;;10.06;nan;96299.38;4990475;28;20205;-57
2023/08/07 02:24:18;;;;;;;0.40;0.40;;;;;;;10.07;nan;96289.59;4992260;28;20202;-62
2023/08/07 02:26:45;;;;;;;0.50;0.40;;;;;;;10.01;nan;96293.84;4992341;28;20599;-61
2023/08/07 02:29:15;;;;;;;0.70;0.70;;;;;;;10.00;nan;96300.16;4976542;28;20205;-63
2023/08/07 02:31:42;;;;;;;0.93;0.47;;;;;;;10.02;nan;96286.75;4965772;28;20204;-63
2023/08/07 02:34:10;;;;;;;0.60;0.60;;;;;;;9.99;nan;96293.25;4994420;28;20229;-63
2023/08/07 02:36:38;;;;;;;0.30;0.30;;;;;;;9.96;nan;96301.59;4991907;28;20212;-61
2023/08/07 02:39:05;;;;;;;0.50;0.50;;;;;;;9.93;nan;96299.34;4929348;28;20758;-61
2023/08/07 02:41:33;;;;;;;0.63;0.50;;;;;;;9.85;nan;96298.53;4992976;28;20209;-60
2023/08/07 02:44:01;;;;;;;0.60;0.30;;;;;;;9.94;nan;96312.38;4899312;28;20224;-60
2023/08/07 02:46:30;;;;;;;0.60;0.50;;;;;;;9.93;nan;96313.41;4995251;28;20224;-64
2023/08/07 02:48:57;;;;;;;0.40;0.40;;;;;;;9.88;nan;96313.19;4992509;28;20246;-61
2023/08/07 02:51:25;;;;;;;0.33;0.33;;;;;;;9.87;nan;96324.78;4993399;28;20208;-61
2023/08/07 02:53:53;;;;;;;0.30;0.30;;;;;;;9.89;nan;96311.34;4989398;28;20240;-62
2023/08/07 02:56:21;;;;;;;0.40;0.40;;;;;;;9.88;nan;96321.13;4993934;28;20209;-65
2023/08/07 02:58:48;;;;;;;0.40;0.40;;;;;;;9.87;nan;96321.31;4986575;28;20201;-62
2023/08/07 03:01:16;;;;;;;0.30;0.30;;;;;;;9.85;nan;96317.03;4992637;28;20232;-62
2023/08/07 03:03:45;;;;;;;0.50;0.50;;;;;;;9.88;nan;96325.59;4942623;28;20237;-64
2023/08/07 03:06:13;;;;;;;0.40;0.40;;;;;;;9.91;nan;96330.47;4993660;28;20208;-61
2023/08/07 03:08:42;;;;;;;0.30;0.30;;;;;;;9.96;nan;96338.63;4926382;28;20212;-62
2023/08/07 03:11:10;;;;;;;0.40;0.40;;;;;;;9.86;nan;96336.41;4994830;28;20297;-63
2023/08/07 03:13:38;;;;;;;0.87;0.57;;;;;;;9.83;nan;96342.88;4988636;28;20230;-63
2023/08/07 03:16:07;;;;;;;0.50;0.50;;;;;;;9.80;nan;96345.94;4994256;28;20223;-61
2023/08/07 03:18:35;;;;;;;0.50;0.50;;;;;;;9.78;nan;96350.63;4897829;28;20213;-60
2023/08/07 03:21:04;;;;;;;0.40;0.40;;;;;;;9.81;nan;96349.38;4995277;28;20237;-63
2023/08/07 03:23:32;;;;;;;0.50;0.50;;;;;;;9.76;nan;96354.47;4993051;28;20217;-57
2023/08/07 03:26:03;;;;;;;0.50;0.50;;;;;;;9.76;nan;96351.81;4992484;28;20214;-59
2023/08/07 03:28:46;;;;;;;0.50;0.50;;;;;;;9.73;nan;96357.50;4990825;28;20604;-61
2023/08/07 03:31:13;;;;;;;0.40;0.40;;;;;;;9.72;nan;96369.09;4989909;28;20213;-62
2023/08/07 03:33:41;;;;;;;0.70;0.70;;;;;;;9.70;nan;96366.66;4941482;28;20243;-61
2023/08/07 03:36:10;;;;;;;0.70;0.70;;;;;;;9.69;nan;96363.19;4994149;28;20301;-61
2023/08/07 03:38:38;;;;;;;0.50;0.50;;;;;;;9.70;nan;96366.66;4984937;28;20684;-63
2023/08/07 03:41:06;;;;;;;0.63;0.63;;;;;;;9.70;nan;96379.91;4994035;28;20229;-61
2023/08/07 03:43:33;;;;;;;0.60;0.60;;;;;;;9.68;nan;96382.72;4989395;28;20244;-61
2023/08/07 03:46:01;;;;;;;0.60;0.50;;;;;;;9.74;nan;96388.22;4992752;28;20205;-61
2023/08/07 03:48:30;;;;;;;0.50;0.50;;;;;;;9.68;nan;96385.38;4993129;28;20224;-61
2023/08/07 03:51:03;;;;;;;0.60;0.60;;;;;;;9.63;nan;96381.66;4993748;28;20208;-60
2023/08/07 03:53:32;;;;;;;0.50;0.50;;;;;;;9.63;nan;96392.25;4883728;28;20236;-63
2023/08/07 03:56:00;;;;;;;0.83;0.83;;;;;;;9.67;nan;96398.81;4993158;28;20213;-63
2023/08/07 03:58:27;;;;;;;0.83;0.70;;;;;;;9.71;nan;96392.09;4989943;28;20212;-61
2023/08/07 04:00:56;;;;;;;0.50;0.50;;;;;;;9.59;nan;96389.19;4990782;28;20244;-62
2023/08/07 04:03:24;;;;;;;1.10;0.60;;;;;;;9.55;nan;96385.31;4967716;28;20226;-66
2023/08/07 04:05:53;;;;;;;0.90;0.90;;;;;;;9.67;nan;96404.09;4954265;28;20209;-61
2023/08/07 04:08:20;;;;;;;0.53;0.53;;;;;;;9.69;nan;96412.66;4988368;28;20205;-62
2023/08/07 04:11:00;;;;;;;1.23;1.13;;;;;;;9.72;nan;96412.25;4988879;28;20281;-65
2023/08/07 04:13:28;;;;;;;0.80;0.80;;;;;;;9.71;nan;96418.56;4992707;28;20229;-64
2023/08/07 04:15:56;;;;;;;0.90;0.90;;;;;;;9.65;nan;96409.56;4991323;28;20205;-62
2023/08/07 04:18:24;;;;;;;0.70;0.70;;;;;;;9.56;nan;96403.63;4996124;28;20213;-63
2023/08/07 04:20:52;;;;;;;0.70;0.70;;;;;;;9.63;nan;96413.41;4989540;28;20236;-62
2023/08/07 04:23:21;;;;;;;0.90;0.90;;;;;;;9.58;nan;96429.88;4962143;28;20225;-64
2023/08/07 04:25:49;;;;;;;0.90;0.90;;;;;;;9.56;nan;96424.78;4914777;28;20216;-65
2023/08/07 04:28:19;;;;;;;0.93;0.93;;;;;;;9.54;nan;96434.75;4995278;28;20200;-61
2023/08/07 04:30:50;;;;;;;1.13;1.03;;;;;;;9.59;nan;96439.44;4989977;28;20213;-63
2023/08/07 04:33:18;;;;;;;0.53;0.53;;;;;;;9.29;nan;96401.88;4985822;28;20236;-65
2023/08/07 04:35:47;;;;;;;1.17;0.90;;;;;;;9.51;nan;96436.97;4945781;28;20570;-62
2023/08/07 04:38:15;;;;;;;0.87;0.87;;;;;;;9.54;nan;96441.88;4991214;28;20228;-63
2023/08/07 04:40:46;;;;;;;1.37;0.80;;;;;;;9.34;nan;96425.91;4941903;28;20232;-65
2023/08/07 04:43:14;;;;;;;0.80;0.80;;;;;;;9.51;nan;96455.50;4992874;28;20323;-64
2023/08/07 04:45:44;;;;;;;0.60;0.60;;;;;;;9.50;nan;96446.72;4995522;28;20748;-63
2023/08/07 04:48:13;;;;;;;0.73;0.73;;;;;;;9.44;nan;96455.44;4990098;28;20556;-62
2023/08/07 04:50:41;;;;;;;0.97;0.97;;;;;;;9.43;nan;96451.16;4990009;28;20201;-65
2023/08/07 04:53:08;;;;;;;0.80;0.80;;;;;;;9.48;nan;96455.88;4989249;28;20228;-61
2023/08/07 04:55:37;;;;;;;0.70;0.70;;;;;;;9.50;nan;96462.59;4933226;28;20221;-65
2023/08/07 04:58:05;;;;;;;0.90;0.90;;;;;;;9.49;nan;96476.03;4964783;28;20216;-63
2023/08/07 05:00:33;;;;;;;0.77;0.77;;;;;;;9.51;nan;96471.34;4932802;28;20274;-62
2023/08/07 05:03:02;;;;;;;1.03;0.80;;;;;;;9.51;nan;96471.34;4989615;28;20224;-63
2023/08/07 05:05:30;;;;;;;1.30;1.20;;;;;;;9.51;nan;96479.28;4941272;28;20651;-62
2023/08/07 05:07:59;;;;;;;2.10;1.20;;;;;;;9.51;nan;96474.00;4988151;28;20204;-61
2023/08/07 05:10:27;;;;;;;0.87;0.87;;;;;;;9.51;nan;96480.09;4989451;28;20674;-64
2023/08/07 05:12:55;;;;;;;1.20;0.93;;;;;;;9.52;nan;96484.38;4992772;28;20233;-62
2023/08/07 05:15:23;;;;;;;0.70;0.70;;;;;;;9.47;nan;96492.06;4985107;28;20210;-62
2023/08/07 05:17:51;;;;;;;1.10;1.00;;;;;;;9.45;nan;96487.97;4991861;28;20220;-63
2023/08/07 05:20:20;;;;;;;0.90;0.90;;;;;;;9.47;nan;96496.53;4985958;28;20212;-63
2023/08/07 05:22:48;;;;;;;0.90;0.90;;;;;;;9.46;nan;96498.38;4990255;28;20259;-63
2023/08/07 05:25:16;;;;;;;0.97;0.97;;;;;;;9.47;nan;96494.72;4988251;28;20205;-62
2023/08/07 05:27:44;;;;;;;1.20;1.20;;;;;;;9.49;nan;96499.81;4998552;28;20242;-63
2023/08/07 05:30:13;;;;;;;1.00;0.90;;;;;;;9.49;nan;96502.47;4881554;28;20216;-65
2023/08/07 05:32:41;;;;;;;0.80;0.80;;;;;;;9.47;nan;96502.66;4992887;28;20673;-63
2023/08/07 05:35:09;;;;;;;0.90;0.90;;;;;;;9.50;nan;96507.53;4990783;28;20217;-63
2023/08/07 05:37:38;;;;;;;1.63;0.90;;;;;;;9.58;nan;96514.53;4995174;28;20209;-63
2023/08/07 05:40:07;;;;;;;1.00;1.00;;;;;;;9.53;nan;96515.09;4942630;28;20516;-63
2023/08/07 05:42:35;;;;;;;1.10;1.10;;;;;;;9.51;nan;96501.25;4995310;28;20326;-63
2023/08/07 05:45:03;;;;;;;1.07;1.07;;;;;;;9.61;nan;96515.94;4992217;28;20203;-63
2023/08/07 05:47:31;;;;;;;1.77;1.40;;;;;;;9.55;nan;96513.06;4995040;28;20232;-64
2023/08/07 05:49:59;;;;;;;1.80;1.00;;;;;;;9.53;nan;96523.03;4991142;28;20201;-62
2023/08/07 05:52:26;;;;;;;1.00;1.00;;;;;;;9.55;nan;96528.13;4994831;28;20306;-65
2023/08/07 05:54:55;;;;;;;1.13;1.13;;;;;;;9.52;nan;96526.69;4995184;28;20584;-63
2023/08/07 05:57:23;;;;;;;0.90;0.90;;;;;;;9.50;nan;96520.78;4994754;28;20208;-63
2023/08/07 05:59:51;;;;;;;1.90;1.80;;;;;;;9.53;nan;96533.59;4885154;28;21585;-63
2023/08/07 06:02:19;;;;;;;1.10;1.10;;;;;;;9.58;nan;96538.31;4995986;28;20229;-64
2023/08/07 06:04:48;;;;;;;1.00;1.00;;;;;;;9.66;nan;96537.34;4992105;28;20209;-63
2023/08/07 06:07:16;;;;;;;1.60;1.50;;;;;;;9.69;nan;96543.06;4993606;28;20220;-63
2023/08/07 06:09:43;;;;;;;1.03;1.03;;;;;;;9.69;nan;96537.78;4993378;28;20655;-63
2023/08/07 06:12:12;;;;;;;1.10;1.10;;;;;;;9.68;nan;96530.84;4993164;28;20224;-63
2023/08/07 06:14:40;;;;;;;0.73;0.73;;;;;;;9.64;nan;96542.84;4943273;28;20944;-61
2023/08/07 06:17:08;;;;;;;0.80;0.80;;;;;;;9.71;nan;96542.88;4994392;28;20204;-63
2023/08/07 06:19:35;;;;;;;0.80;0.80;;;;;;;9.65;nan;96557.69;4992013;28;20205;-64
2023/08/07 06:22:03;;;;;;;1.27;1.17;;;;;;;9.73;nan;96555.91;4990903;28;20592;-63
2023/08/07 06:24:31;;;;;;;1.30;1.20;;;;;;;9.77;nan;96557.97;4992660;28;20205;-64
2023/08/07 06:26:59;;;;;;;0.87;0.83;;;;;;;9.76;nan;96564.28;4996895;28;20209;-64
2023/08/07 06:29:28;;;;;;;1.57;1.07;;;;;;;9.78;nan;96562.25;4992556;28;20698;-64
2023/08/07 06:31:55;;;;;;;1.03;1.03;;;;;;;9.79;nan;96563.88;4992610;28;20193;-64
2023/08/07 06:34:24;;;;;;;0.80;0.80;;;;;;;9.61;nan;96561.75;4922994;28;20643;-67
2023/08/07 06:36:52;;;;;;;0.83;0.83;;;;;;;9.69;nan;96566.88;4963345;28;20206;-63
2023/08/07 06:39:20;;;;;;;1.00;1.00;;;;;;;9.68;nan;96567.09;4992025;28;20215;-65
2023/08/07 06:41:47;;;;;;;1.63;1.00;;;;;;;9.80;nan;96569.97;4994834;28;20271;-64
2023/08/07 06:44:15;;;;;;;1.67;1.07;;;;;;;9.80;nan;96580.56;4967946;28;20504;-69
2023/08/07 06:46:44;;;;;;;1.17;1.07;;;;;;;9.88;nan;96575.16;4972786;28;20217;-65
2023/08/07 06:49:12;;;;;;;1.30;1.20;;;;;;;9.76;nan;96577.50;4991825;28;20216;-65
2023/08/07 06:51:40;;;;;;;3.03;1.13;;;;;;;9.72;nan;96586.00;4992138;28;20201;-64
2023/08/07 06:54:07;;;;;;;1.50;1.40;;;;;;;9.75;nan;96586.47;4990829;28;20865;-65
2023/08/07 06:56:37;;;;;;;1.17;1.17;;;;;;;9.86;nan;96577.16;4993399;28;20623;-64
2023/08/07 06:59:05;;;;;;;1.30;1.20;;;;;;;9.83;nan;96582.81;4993670;28;20580;-65
2023/08/07 07:01:32;;;;;;;1.23;1.13;;;;;;;9.85;nan;96589.56;4994952;28;20276;-63
2023/08/07 07:04:02;;;;;;;1.10;1.10;;;;;;;9.83;nan;96590.75;4995198;28;20310;-66
2023/08/07 07:06:29;;;;;;;1.60;1.40;;;;;;;9.79;nan;96592.16;4990963;28;20560;-63
2023/08/07 07:08:57;;;;;;;1.13;1.10;;;;;;;9.93;nan;96591.25;4976211;28;20679;-67
2023/08/07 07:11:25;;;;;;;1.10;1.10;;;;;;;10.04;nan;96594.34;4909783;28;20217;-64
2023/08/07 07:13:53;;;;;;;1.73;1.13;;;;;;;10.06;nan;96601.09;5000399;28;20228;-65
2023/08/07 07:16:22;;;;;;;1.33;1.07;;;;;;;10.16;nan;96597.28;4997332;28;20569;-66
2023/08/07 07:18:50;;;;;;;1.73;1.67;;;;;;;10.10;nan;96602.34;4996917;28;20205;-67
2023/08/07 07:21:20;;;;;;;1.70;1.60;;;;;;;10.15;nan;96601.75;4938670;28;20644;-64
2023/08/07 07:23:47;;;;;;;1.40;1.40;;;;;;;10.19;nan;96597.69;4994064;28;20606;-63
2023/08/07 07:26:15;;;;;;;1.73;1.43;;;;;;;10.27;nan;96612.59;4988815;28;20833;-62
2023/08/07 07:28:43;;;;;;;1.20;1.20;;;;;;;10.21;nan;96600.94;4998350;28;20624;-63
2023/08/07 07:31:11;;;;;;;1.40;1.30;;;;;;;10.08;nan;96612.31;4989884;28;20814;-62
2023/08/07 07:33:41;;;;;;;1.40;1.40;;;;;;;10.22;nan;96618.47;4992744;28;20221;-63
2023/08/07 07:36:15;;;;;;;1.50;1.40;;;;;;;10.21;nan;96616.84;4987888;28;20212;-65
2023/08/07 07:38:46;;;;;;;1.50;1.40;;;;;;;10.17;nan;96620.88;4992672;28;20208;-62
2023/08/07 07:41:14;;;;;;;1.57;1.47;;;;;;;10.20;nan;96614.41;4888071;28;20312;-63
2023/08/07 07:43:42;;;;;;;1.90;1.33;;;;;;;10.14;nan;96621.28;4994896;28;20244;-62
2023/08/07 07:46:10;;;;;;;1.20;1.20;;;;;;;10.25;nan;96628.69;4989623;28;20209;-62
2023/08/07 07:48:38;;;;;;;1.00;1.00;;;;;;;10.18;nan;96627.81;4994723;28;20213;-62
2023/08/07 07:51:06;;;;;;;1.40;1.40;;;;;;;10.28;nan;96635.41;4988507;28;20439;-63
2023/08/07 07:53:34;;;;;;;1.80;1.70;;;;;;;10.42;nan;96638.97;4992955;28;20237;-66
2023/08/07 07:56:03;;;;;;;8.37;7.00;;;;;;;10.37;nan;96641.38;4939426;28;20217;-62
2023/08/07 07:58:31;;;;;;;1.90;1.80;;;;;;;10.25;nan;96638.47;4992522;28;20293;-62
2023/08/07 08:00:58;;;;;;;2.37;1.30;;;;;;;10.20;nan;96644.31;4987202;28;20347;-63
2023/08/07 08:03:27;;;;;;;1.10;1.10;;;;;;;10.34;nan;96644.41;4994574;28;20568;-62
2023/08/07 08:05:54;;;;;;;1.67;1.57;;;;;;;10.39;nan;96650.75;4988461;28;20209;-63
2023/08/07 08:08:22;;;;;;;3.27;1.67;;;;;;;10.37;nan;96655.41;4993414;28;20209;-63
2023/08/07 08:10:51;;;;;;;1.00;1.00;;;;;;;10.47;nan;96655.09;4991600;28;20218;-63
2023/08/07 08:13:20;;;;;;;0.90;0.90;;;;;;;10.57;nan;96657.41;4991691;28;20232;-63
2023/08/07 08:15:48;;;;;;;1.23;1.03;;;;;;;10.53;nan;96664.09;4882770;28;20708;-61
2023/08/07 08:18:15;;;;;;;1.10;1.10;;;;;;;10.51;nan;96659.00;4990259;28;20209;-64
2023/08/07 08:20:43;;;;;;;1.23;1.13;;;;;;;10.45;nan;96662.44;4991192;28;20205;-62
2023/08/07 08:23:11;;;;;;;0.87;0.87;;;;;;;10.45;nan;96682.81;4993146;28;20711;-61
2023/08/07 08:25:38;;;;;;;1.10;1.10;;;;;;;10.44;nan;96674.03;4939269;28;20600;-63
2023/08/07 08:28:06;;;;;;;1.00;0.90;;;;;;;10.55;nan;96675.31;4996005;28;20236;-62
2023/08/07 08:30:35;;;;;;;1.17;1.13;;;;;;;10.66;nan;96681.91;4988648;28;20212;-62
2023/08/07 08:33:05;;;;;;;0.93;0.93;;;;;;;10.63;nan;96685.75;4993392;28;20571;-62
2023/08/07 08:35:33;;;;;;;3.70;3.30;;;;;;;10.75;nan;96687.81;4990371;28;20205;-61
2023/08/07 08:38:01;;;;;;;1.27;1.27;;;;;;;10.56;nan;96680.41;4993055;28;20208;-62
2023/08/07 08:40:29;;;;;;;0.87;0.87;;;;;;;10.68;nan;96690.47;4991533;28;20219;-63
2023/08/07 08:42:57;;;;;;;2.43;1.07;;;;;;;10.77;nan;96696.41;4990634;28;20242;-62
2023/08/07 08:45:26;;;;;;;0.80;0.80;;;;;;;10.59;nan;96694.28;4876622;28;20220;-62
2023/08/07 08:48:00;;;;;;;0.90;0.90;;;;;;;10.80;nan;96706.63;4994385;28;20201;-62
2023/08/07 08:50:29;;;;;;;0.87;0.87;;;;;;;10.82;nan;96700.09;4988114;28;20217;-61
2023/08/07 08:52:57;;;;;;;1.27;1.07;;;;;;;10.80;nan;96712.72;4992508;28;20322;-61
2023/08/07 08:55:26;;;;;;;0.90;0.90;;;;;;;10.65;nan;96707.56;4986561;28;20212;-63
2023/08/07 08:57:54;;;;;;;1.10;1.10;;;;;;;10.59;nan;96718.94;4993488;28;20201;-62
2023/08/07 09:00:22;;;;;;;0.90;0.90;;;;;;;10.63;nan;96722.03;4942130;28;20287;-65
2023/08/07 09:02:51;;;;;;;1.43;1.33;;;;;;;10.55;nan;96720.34;4994930;28;20689;-61
2023/08/07 09:05:21;;;;;;;1.00;1.00;;;;;;;10.57;nan;96739.50;4995198;28;20672;-62
2023/08/07 09:07:49;;;;;;;1.10;1.10;;;;;;;10.65;nan;96725.31;4995917;28;20204;-61
2023/08/07 09:10:17;;;;;;;1.53;1.50;;;;;;;10.83;nan;96732.72;4993853;28;20232;-61
2023/08/07 09:12:50;;;;;;;1.37;1.30;;;;;;;10.66;nan;96737.53;4997514;28;20235;-62
2023/08/07 09:15:19;;;;;;;1.33;1.30;;;;;;;10.61;nan;96745.25;4879535;28;20239;-65
2023/08/07 09:17:47;;;;;;;1.50;1.40;;;;;;;10.65;nan;96743.84;4994943;28;20205;-66
2023/08/07 09:20:15;;;;;;;1.97;1.63;;;;;;;10.64;nan;96748.31;4992100;28;20208;-64
2023/08/07 09:22:44;;;;;;;1.20;1.20;;;;;;;10.67;nan;96747.13;4996154;28;20592;-63
2023/08/07 09:25:13;;;;;;;1.50;1.50;;;;;;;10.60;nan;96749.72;4993875;28;20212;-64
2023/08/07 09:27:41;;;;;;;1.90;1.30;;;;;;;10.56;nan;96749.28;4996981;28;20681;-64
2023/08/07 09:30:10;;;;;;;1.80;1.70;;;;;;;10.67;nan;96750.56;4990750;28;20214;-65
2023/08/07 09:32:38;;;;;;;2.07;1.83;;;;;;;10.67;nan;96747.13;4992930;28;20753;-65
2023/08/07 09:35:08;;;;;;;1.63;1.60;;;;;;;10.62;nan;96757.50;4947728;28;20656;-64
2023/08/07 09:37:38;;;;;;;2.63;1.70;;;;;;;10.61;nan;96761.16;4994979;28;20784;-63
2023/08/07 09:40:12;;;;;;;1.80;1.70;;;;;;;10.53;nan;96762.91;4992794;28;20217;-64
2023/08/07 09:42:40;;;;;;;2.10;2.00;;;;;;;10.68;nan;96773.41;4992505;28;20651;-64
2023/08/07 09:45:20;;;;;;;2.60;2.40;;;;;;;10.63;nan;96749.31;4883883;28;20279;-63
2023/08/07 09:47:57;;;;;;;3.17;2.43;;;;;;;10.83;nan;96773.28;4999442;28;20205;-63
2023/08/07 09:50:26;;;;;;;3.13;2.50;;;;;;;10.75;nan;96773.44;4994104;28;20269;-63
2023/08/07 09:52:55;;;;;;;2.10;2.00;;;;;;;10.90;nan;96783.94;4994277;28;20314;-64
2023/08/07 09:55:24;;;;;;;2.57;2.47;;;;;;;10.94;nan;96795.78;4994779;28;20220;-63
2023/08/07 09:57:52;;;;;;;1.73;1.73;;;;;;;10.96;nan;96785.78;4995256;28;20217;-63
2023/08/07 10:00:21;;;;;;;2.60;2.40;;;;;;;10.99;nan;96785.41;4992825;28;20206;-63
2023/08/07 10:02:49;;;;;;;1.90;1.80;;;;;;;10.90;nan;96791.88;4993759;28;20241;-63
2023/08/07 10:05:18;;;;;;;2.60;2.07;;;;;;;10.94;nan;96787.00;4993305;28;20216;-64
2023/08/07 10:07:47;;;;;;;2.03;1.93;;;;;;;10.90;nan;96789.22;4993984;28;20209;-63
2023/08/07 10:10:15;;;;;;;2.00;1.90;;;;;;;10.87;nan;96781.69;4941207;28;20359;-63
2023/08/07 10:12:47;;;;;;;2.10;2.00;;;;;;;11.06;nan;96787.25;4998786;28;20228;-64
2023/08/07 10:15:16;;;;;;;4.50;1.70;;;;;;;11.18;nan;96788.34;4882871;28;20209;-62
2023/08/07 10:17:43;;;;;;;2.20;2.10;;;;;;;11.27;nan;96795.13;4997248;28;20225;-64
2023/08/07 10:20:12;;;;;;;2.53;1.87;;;;;;;11.36;nan;96793.09;4992761;28;20298;-66
2023/08/07 10:22:42;;;;;;;2.20;2.10;;;;;;;11.41;nan;96796.00;4990851;28;20253;-62
2023/08/07 10:25:09;;;;;;;2.10;2.00;;;;;;;11.82;nan;96788.94;4996567;28;20676;-62
2023/08/07 10:27:39;;;;;;;2.00;1.90;;;;;;;11.79;nan;96786.69;4992250;28;20208;-62
2023/08/07 10:30:13;;;;;;;2.50;2.30;;;;;;;11.70;nan;96787.91;4991923;28;20251;-63
2023/08/07 10:32:41;;;;;;;2.03;1.83;;;;;;;11.86;nan;96792.81;4995384;28;20232;-62
2023/08/07 10:35:09;;;;;;;1.87;1.77;;;;;;;11.98;nan;96794.91;4994945;28;20204;-63
2023/08/07 10:37:41;;;;;;;2.17;1.97;;;;;;;12.00;nan;96779.59;4993604;28;20205;-63
2023/08/07 10:40:10;;;;;;;1.77;1.60;;;;;;;12.20;nan;96781.44;4993549;28;20217;-63
2023/08/07 10:42:57;;;;;;;1.60;1.50;;;;;;;12.61;nan;96782.25;4993948;28;20711;-62
2023/08/07 10:45:27;;;;;;;2.23;2.13;;;;;;;12.42;nan;96782.06;4941221;28;20236;-59
2023/08/07 10:48:02;;;;;;;1.77;1.40;;;;;;;11.89;nan;96746.47;4995485;28;20275;-62
2023/08/07 10:50:31;;;;;;;2.17;1.90;;;;;;;12.26;nan;96780.63;4886763;28;20698;-62
2023/08/07 10:53:01;;;;;;;3.67;1.77;;;;;;;12.41;nan;96789.22;4995489;28;20237;-64
2023/08/07 10:55:32;;;;;;;2.40;1.20;;;;;;;12.20;nan;96784.94;4993439;28;20204;-62
2023/08/07 10:58:00;;;;;;;2.07;1.40;;;;;;;12.20;nan;96776.97;4997847;28;20580;-61
2023/08/07 11:00:30;;;;;;;1.20;1.20;;;;;;;12.52;nan;96765.69;4993042;28;20208;-64
2023/08/07 11:02:59;;;;;;;1.60;1.50;;;;;;;12.85;nan;96775.44;4993257;28;20508;-62
2023/08/07 11:05:27;;;;;;;1.40;1.40;;;;;;;12.36;nan;96773.09;4989688;28;20229;-59
2023/08/07 11:07:54;;;;;;;1.57;1.20;;;;;;;12.45;nan;96785.13;4997432;28;20220;-62
2023/08/07 11:10:22;;;;;;;1.83;1.07;;;;;;;12.80;nan;96785.91;4989855;28;20217;-62
2023/08/07 11:12:50;;;;;;;1.03;1.03;;;;;;;12.70;nan;96776.53;4994399;28;20247;-62
2023/08/07 11:15:18;;;;;;;1.33;1.30;;;;;;;12.92;nan;96780.75;4941829;28;20572;-63
2023/08/07 11:17:47;;;;;;;1.30;1.17;;;;;;;12.91;nan;96782.59;4994703;28;20205;-63
2023/08/07 11:20:15;;;;;;;1.50;1.40;;;;;;;12.91;nan;96779.13;4880176;28;20362;-67
2023/08/07 11:22:43;;;;;;;1.30;1.20;;;;;;;12.76;nan;96774.84;4996381;28;20230;-64
2023/08/07 11:25:13;;;;;;;1.70;1.50;;;;;;;12.94;nan;96784.84;4994551;28;20237;-65
2023/08/07 11:27:41;;;;;;;1.47;1.33;;;;;;;12.76;nan;96790.00;4993601;28;20208;-65
2023/08/07 11:30:12;;;;;;;1.03;1.03;;;;;;;12.73;nan;96780.59;4991554;28;20201;-65
2023/08/07 11:32:40;;;;;;;1.13;1.13;;;;;;;12.42;nan;96790.03;4994386;28;20229;-64
2023/08/07 11:35:10;;;;;;;3.03;1.17;;;;;;;12.50;nan;96789.84;4989303;28;20573;-64
2023/08/07 11:37:47;;;;;;;1.00;1.00;;;;;;;12.51;nan;96772.88;4990476;28;20394;-62
2023/08/07 11:40:15;;;;;;;1.20;1.10;;;;;;;12.26;nan;96804.53;4991034;28;20200;-61
2023/08/07 11:42:42;;;;;;;1.30;1.03;;;;;;;12.05;nan;96784.28;4990669;28;20228;-63
2023/08/07 11:45:11;;;;;;;1.60;0.90;;;;;;;12.13;nan;96790.22;4991715;28;20225;-64
2023/08/07 11:47:39;;;;;;;0.90;0.90;;;;;;;11.83;nan;96803.03;4993652;28;20813;-66
2023/08/07 11:50:10;;;;;;;1.40;1.40;;;;;;;11.96;nan;96800.41;4942038;28;20209;-65
2023/08/07 11:52:40;;;;;;;1.60;1.50;;;;;;;11.96;nan;96808.38;4991380;28;20233;-64
2023/08/07 11:55:09;;;;;;;4.10;1.67;;;;;;;11.93;nan;96816.72;4879861;28;20214;-63
2023/08/07 11:57:39;;;;;;;2.23;2.10;;;;;;;11.90;nan;96813.66;4996646;28;20209;-63
2023/08/07 12:00:12;;;;;;;1.40;1.30;;;;;;;11.76;nan;96818.94;4988311;28;20213;-64